aviador You're here:

RJOO Decoded Metar

OSAKA in JAPAN
Report Time2015-02-28 20:00:00
UTC Time2015-02-28 20:44:42
Flight Rules vfr VFR
Wind060° at 05 kt
W.Decomp.*RWY 14: 1.5 kt HW 4.8 kt LCW
W.Rank060° ranks 10
Current wind is below 060° avg. (6.7)
Visibility9999 m
Phenomena:Light Rain
Clouds:Few 015 Hf
Scattered 035 Hf
Broken 050 Hf
Expected CloudBase > 800 ft AGL from Temp-Dew spread
Ceiling5,000 ft
Temp06°C (ISA -9)
Dew Point04°C (87% RH)
AAT2.9°C
QNH1019 hPa
Density Alt-1,119 ft
Elevation49 ft
Report Wrong Elevation
Raw Report
RJOO 282000Z 06005KT 9999 -RA FEW015 SCT035 BKN050 06/04 Q1019 RMK
1CU015 3CU035 6SC050 A3010=

Extra information for RJOO:More info

Metar Taf Metar & Taf Last 4 Metars F.Rules Stats Wind Profile Meteogram Temp Stats Airport Information Weather charts Add Link Nearby VenuesMetar ALERT Operation Metar Decoded Social comments